createdAt,value
2019-01-19T00:00:41.970Z,106.00
2019-01-19T00:03:38.666Z,108.10
2019-01-19T00:06:24.579Z,116.63
2019-01-19T00:08:58.960Z,122.10
2019-01-19T00:11:44.747Z,112.17
2019-01-19T00:14:18.235Z,117.80
2019-01-19T00:17:04.458Z,134.67
2019-01-19T00:19:57.958Z,151.73
2019-01-19T00:22:51.086Z,146.20
2019-01-19T00:25:36.587Z,138.03
2019-01-19T00:28:12.081Z,146.27
2019-01-19T00:30:45.492Z,135.10
2019-01-19T00:33:26.516Z,137.70
2019-01-19T00:36:01.838Z,140.30
2019-01-19T00:38:58.606Z,132.17
2019-01-19T00:42:01.399Z,135.87
2019-01-19T00:44:33.050Z,145.37
2019-01-19T00:47:23.675Z,124.63
2019-01-19T00:49:55.334Z,143.37
2019-01-19T00:52:44.098Z,127.03
2019-01-19T00:55:24.393Z,136.40
2019-01-19T00:57:57.454Z,118.63
2019-01-19T01:00:28.153Z,133.93
2019-01-19T01:03:18.855Z,135.60
2019-01-19T01:06:06.601Z,141.73
2019-01-19T01:08:44.846Z,129.00
2019-01-19T01:11:16.125Z,131.20
2019-01-19T01:14:02.502Z,124.10
2019-01-19T01:16:44.981Z,119.57
2019-01-19T01:19:26.853Z,111.50
2019-01-19T01:22:23.702Z,127.30
2019-01-19T01:25:11.546Z,109.40
2019-01-19T01:28:05.290Z,110.23
2019-01-19T01:31:04.989Z,117.77
2019-01-19T01:33:38.240Z,122.47
2019-01-19T01:36:24.163Z,108.57
2019-01-19T01:38:57.537Z,114.30
2019-01-19T01:41:45.347Z,113.70
2019-01-19T01:44:44.979Z,103.67
2019-01-19T01:47:35.642Z,109.93
2019-01-19T01:50:13.034Z,112.13
2019-01-19T01:53:03.648Z,120.90
2019-01-19T01:55:52.252Z,109.60
2019-01-19T01:58:40.005Z,102.17
2019-01-19T02:01:20.842Z,100.30
2019-01-19T02:03:53.946Z,100.20
2019-01-19T02:06:29.362Z,108.53
2019-01-19T02:09:23.061Z,106.93
2019-01-19T02:11:58.470Z,105.83
2019-01-19T02:14:46.234Z,100.87
2019-01-19T02:17:40.634Z,101.63
2019-01-19T02:20:16.343Z,114.00
2019-01-19T02:23:06.801Z,109.60
2019-01-19T02:25:53.204Z,108.70
2019-01-19T02:28:24.742Z,132.57
2019-01-19T02:31:05.182Z,109.40
2019-01-19T02:33:42.505Z,130.43
2019-01-19T02:36:25.607Z,124.73
2019-01-19T02:39:08.942Z,122.47
2019-01-19T02:41:50.883Z,119.13
2019-01-19T02:44:24.179Z,112.87
2019-01-19T02:47:00.543Z,111.37
2019-01-19T02:49:52.014Z,111.50
2019-01-19T02:52:38.179Z,103.90
2019-01-19T02:55:28.690Z,113.63
2019-01-19T02:58:00.234Z,107.87
2019-01-19T03:00:53.675Z,94.10
2019-01-19T03:03:47.386Z,99.37
2019-01-19T03:06:38.226Z,103.20
2019-01-19T03:09:12.746Z,97.37
2019-01-19T03:11:54.455Z,98.70
2019-01-19T03:14:40.503Z,101.83
2019-01-19T03:17:26.770Z,86.83
2019-01-19T03:20:20.075Z,88.77
2019-01-19T03:23:13.373Z,93.03
2019-01-19T03:25:45.211Z,97.30
2019-01-19T03:28:35.729Z,99.40
2019-01-19T03:31:28.307Z,98.07
2019-01-19T03:34:16.080Z,83.67
2019-01-19T03:37:21.642Z,101.57
2019-01-19T03:40:05.966Z,90.10
2019-01-19T03:42:52.009Z,87.03
2019-01-19T03:45:38.518Z,91.63
2019-01-19T03:48:11.143Z,94.93
2019-01-19T03:50:45.975Z,107.80
2019-01-19T03:53:36.598Z,96.17
2019-01-19T03:56:09.481Z,91.80
2019-01-19T03:58:41.011Z,85.67
2019-01-19T04:01:21.094Z,101.47
2019-01-19T04:03:58.261Z,98.90
2019-01-19T04:06:51.606Z,100.10
2019-01-19T04:09:51.251Z,88.77
2019-01-19T04:12:39.031Z,100.90
2019-01-19T04:15:10.862Z,94.10
2019-01-19T04:18:07.205Z,92.50
2019-01-19T04:20:53.380Z,95.00
2019-01-19T04:23:21.958Z,91.77
2019-01-19T04:25:52.638Z,94.70
2019-01-19T04:28:23.250Z,106.63
2019-01-19T04:30:51.824Z,96.40
2019-01-19T04:33:20.452Z,92.43
2019-01-19T04:35:49.011Z,92.83
2019-01-19T04:38:17.587Z,88.93
2019-01-19T04:40:46.139Z,85.17
2019-01-19T04:43:14.686Z,85.83
2019-01-19T04:45:43.250Z,92.53
2019-01-19T04:48:11.826Z,97.43
2019-01-19T04:50:40.379Z,82.93
2019-01-19T04:53:08.953Z,89.20
2019-01-19T04:55:37.495Z,93.47
2019-01-19T04:58:06.038Z,83.63
2019-01-19T05:00:34.615Z,79.27
2019-01-19T05:03:03.160Z,92.27
2019-01-19T05:05:31.698Z,85.27
2019-01-19T05:08:00.263Z,89.53
2019-01-19T05:10:28.850Z,81.83
2019-01-19T05:12:57.395Z,85.17
2019-01-19T05:15:25.987Z,84.20
2019-01-19T05:17:55.405Z,88.43
2019-01-19T05:20:24.018Z,85.00
2019-01-19T05:22:52.595Z,79.43
2019-01-19T05:25:21.141Z,86.10
2019-01-19T05:27:49.775Z,84.43
2019-01-19T05:30:19.218Z,80.23
2019-01-19T05:32:47.766Z,87.30
2019-01-19T05:35:16.411Z,86.50
2019-01-19T05:37:44.982Z,80.30
2019-01-19T05:40:13.531Z,93.17
2019-01-19T05:42:42.068Z,88.97
2019-01-19T05:45:11.475Z,89.67
2019-01-19T05:47:40.023Z,98.80
2019-01-19T05:50:10.607Z,89.43
2019-01-19T05:52:39.179Z,101.17
2019-01-19T05:55:07.729Z,96.00
2019-01-19T05:57:36.280Z,93.53
2019-01-19T06:00:06.366Z,92.83
2019-01-19T06:02:34.941Z,95.57
2019-01-19T06:05:03.480Z,87.53
2019-01-19T06:07:32.076Z,92.10
2019-01-19T06:10:00.642Z,98.13
2019-01-19T06:12:29.194Z,88.33
2019-01-19T06:14:57.751Z,85.73
2019-01-19T06:17:26.294Z,86.77
2019-01-19T06:19:54.943Z,98.43
2019-01-19T06:22:23.611Z,99.30
2019-01-19T06:24:52.162Z,80.57
2019-01-19T06:27:20.715Z,85.90
2019-01-19T06:29:49.426Z,90.37
2019-01-19T06:32:18.031Z,85.27
2019-01-19T06:34:46.599Z,86.20
2019-01-19T06:37:15.148Z,84.37
2019-01-19T06:39:43.703Z,93.93
2019-01-19T06:42:12.510Z,84.17
2019-01-19T06:44:41.158Z,78.73
2019-01-19T06:47:09.700Z,82.60
2019-01-19T06:49:38.249Z,82.40
2019-01-19T06:52:06.951Z,82.67
2019-01-19T06:54:35.595Z,74.83
2019-01-19T06:57:04.172Z,81.93
2019-01-19T06:59:32.730Z,80.23
2019-01-19T07:02:01.276Z,76.83
2019-01-19T07:04:29.861Z,71.97
2019-01-19T07:07:02.611Z,79.87
2019-01-19T07:09:28.635Z,70.53
2019-01-19T07:11:57.313Z,70.00
2019-01-19T07:14:27.187Z,70.80
2019-01-19T07:16:55.741Z,62.97
2019-01-19T07:19:24.303Z,71.80
2019-01-19T07:21:52.889Z,68.43
2019-01-19T07:24:21.425Z,66.40
2019-01-19T07:26:49.975Z,62.03
2019-01-19T07:29:18.546Z,60.57
2019-01-19T07:31:47.098Z,57.60
2019-01-19T07:34:15.647Z,52.10
2019-01-19T07:36:44.205Z,54.40
2019-01-19T07:39:12.779Z,58.73
2019-01-19T07:41:41.322Z,59.77
2019-01-19T07:44:09.898Z,51.87
2019-01-19T07:46:38.914Z,55.37
2019-01-19T07:49:07.468Z,56.30
2019-01-19T07:51:36.026Z,57.50
2019-01-19T07:54:04.575Z,51.50
2019-01-19T07:56:33.166Z,51.80
2019-01-19T07:59:01.925Z,52.20
2019-01-19T08:01:30.482Z,52.53
2019-01-19T08:03:59.080Z,50.93
2019-01-19T08:06:27.725Z,48.63
2019-01-19T08:08:56.668Z,49.93
2019-01-19T08:11:25.249Z,49.27
2019-01-19T08:13:53.841Z,45.63
2019-01-19T08:16:22.393Z,46.63
2019-01-19T08:18:50.962Z,45.90
2019-01-19T08:21:19.581Z,44.70
2019-01-19T08:23:48.131Z,38.93
2019-01-19T08:26:16.681Z,40.80
2019-01-19T08:28:45.299Z,40.57
2019-01-19T08:31:13.896Z,40.73
2019-01-19T08:33:42.465Z,39.83
2019-01-19T08:36:11.138Z,38.93
2019-01-19T08:38:39.688Z,40.83
2019-01-19T08:41:08.329Z,43.07
2019-01-19T08:43:43.146Z,36.70
2019-01-19T08:46:11.787Z,37.67
2019-01-19T08:48:40.339Z,39.63
2019-01-19T08:51:08.894Z,39.17
2019-01-19T08:53:37.475Z,40.60
2019-01-19T08:56:06.042Z,37.37
2019-01-19T08:58:34.622Z,34.33
2019-01-19T09:01:03.198Z,35.77
2019-01-19T09:03:31.746Z,33.30
2019-01-19T09:06:00.310Z,35.80
2019-01-19T09:08:28.951Z,35.07
2019-01-19T09:10:57.503Z,37.17
2019-01-19T09:13:26.069Z,37.20
2019-01-19T09:15:56.542Z,32.57
2019-01-19T09:18:25.117Z,36.33
2019-01-19T09:20:53.982Z,35.47
2019-01-19T09:23:27.866Z,33.13
2019-01-19T09:25:56.452Z,33.30
2019-01-19T09:28:25.013Z,31.97
2019-01-19T09:30:53.598Z,31.60
2019-01-19T09:33:22.206Z,34.03
2019-01-19T09:35:50.891Z,29.97
2019-01-19T09:38:19.483Z,35.50
2019-01-19T09:40:48.037Z,30.67
2019-01-19T09:43:18.250Z,26.73
2019-01-19T09:45:47.041Z,28.13
2019-01-19T09:48:15.642Z,30.33
2019-01-19T09:50:44.268Z,28.20
2019-01-19T09:53:12.771Z,27.07
2019-01-19T09:55:41.325Z,32.90
2019-01-19T09:58:09.895Z,26.27
2019-01-19T10:00:45.535Z,28.90
2019-01-19T10:03:12.254Z,26.87
2019-01-19T10:05:40.841Z,26.10
2019-01-19T10:08:09.420Z,26.93
2019-01-19T10:10:37.988Z,24.33
2019-01-19T10:13:06.553Z,30.00
2019-01-19T10:15:35.126Z,26.63
2019-01-19T10:18:03.691Z,28.17
2019-01-19T10:20:32.313Z,28.83
2019-01-19T10:23:00.941Z,23.30
2019-01-19T10:25:29.567Z,21.57
2019-01-19T10:27:58.182Z,20.13
2019-01-19T10:30:26.848Z,23.37
2019-01-19T10:32:55.422Z,24.13
2019-01-19T10:35:23.975Z,21.90
2019-01-19T10:37:56.573Z,24.00
2019-01-19T10:40:22.870Z,20.57
2019-01-19T10:42:51.510Z,20.00
2019-01-19T10:45:21.325Z,31.40
2019-01-19T10:47:50.113Z,20.90
2019-01-19T10:50:18.754Z,20.47
2019-01-19T10:52:47.382Z,21.37
2019-01-19T10:55:16.753Z,18.97
2019-01-19T10:57:45.303Z,19.87
2019-01-19T11:00:15.694Z,18.53
2019-01-19T11:02:44.268Z,20.10
2019-01-19T11:05:13.267Z,22.40
2019-01-19T11:07:43.402Z,17.37
2019-01-19T11:10:13.406Z,17.27
2019-01-19T11:12:41.909Z,18.80
2019-01-19T11:15:11.093Z,19.50
2019-01-19T11:17:39.670Z,18.77
2019-01-19T11:20:10.196Z,17.30
2019-01-19T11:22:38.776Z,18.13
2019-01-19T11:25:07.360Z,16.50
2019-01-19T11:27:35.953Z,16.67
2019-01-19T11:30:05.098Z,17.87
2019-01-19T11:32:33.716Z,21.13
2019-01-19T11:35:02.308Z,17.60
2019-01-19T11:37:30.867Z,17.07
2019-01-19T11:39:59.467Z,20.40
2019-01-19T11:42:28.031Z,17.63
2019-01-19T11:44:56.622Z,16.77
2019-01-19T11:47:25.190Z,15.97
2019-01-19T11:49:53.947Z,15.83
2019-01-19T11:52:22.546Z,17.43
2019-01-19T11:54:51.267Z,16.67
2019-01-19T11:57:19.846Z,19.53
2019-01-19T11:59:48.426Z,18.03
2019-01-19T12:02:17.050Z,18.30
2019-01-19T12:04:45.749Z,16.37
2019-01-19T12:07:14.311Z,17.17
2019-01-19T12:09:42.911Z,15.53
2019-01-19T12:12:11.547Z,18.93
2019-01-19T12:14:40.107Z,14.70
2019-01-19T12:17:08.718Z,15.07
2019-01-19T12:19:37.295Z,14.80
2019-01-19T12:22:05.881Z,18.30
2019-01-19T12:24:34.442Z,17.70
2019-01-19T12:27:03.047Z,15.93
2019-01-19T12:29:31.623Z,17.77
2019-01-19T12:32:00.177Z,18.10
2019-01-19T12:34:28.759Z,15.17
2019-01-19T12:36:57.360Z,18.20
2019-01-19T12:39:25.941Z,17.63
2019-01-19T12:41:54.531Z,14.67
2019-01-19T12:44:23.107Z,15.23
2019-01-19T12:46:51.674Z,15.23
2019-01-19T12:49:20.245Z,22.23
2019-01-19T12:51:48.867Z,15.77
2019-01-19T12:54:17.462Z,17.13
2019-01-19T12:56:46.019Z,15.03
2019-01-19T12:59:14.617Z,15.20
2019-01-19T13:01:43.171Z,17.63
2019-01-19T13:04:12.288Z,17.13
2019-01-19T13:06:51.930Z,15.73
2019-01-19T13:09:30.952Z,18.93
2019-01-19T13:12:21.690Z,16.03
2019-01-19T13:15:03.950Z,13.30
2019-01-19T13:17:51.746Z,14.00
2019-01-19T13:20:39.563Z,15.90
2019-01-19T13:23:25.810Z,12.73
2019-01-19T13:26:22.690Z,13.50
2019-01-19T13:29:20.080Z,16.27
2019-01-19T13:32:08.375Z,16.03
2019-01-19T13:34:56.180Z,19.87
2019-01-19T13:37:46.857Z,21.13
2019-01-19T13:40:19.533Z,24.07
2019-01-19T13:42:59.786Z,17.40
2019-01-19T13:45:34.458Z,17.47
2019-01-19T13:48:30.893Z,15.50
2019-01-19T13:51:02.967Z,16.73
2019-01-19T13:53:48.894Z,19.57
2019-01-19T13:56:38.228Z,18.13
2019-01-19T13:59:31.514Z,17.63
2019-01-19T14:02:16.318Z,19.90
2019-01-19T14:05:21.959Z,19.40
2019-01-19T14:08:12.670Z,22.00
2019-01-19T14:11:01.380Z,22.77
2019-01-19T14:13:51.803Z,21.23
2019-01-19T14:16:27.214Z,20.30
2019-01-19T14:19:13.279Z,20.40
2019-01-19T14:21:59.255Z,20.33
2019-01-19T14:24:40.411Z,22.30
2019-01-19T14:27:24.333Z,20.77
2019-01-19T14:29:57.856Z,23.70
2019-01-19T14:33:00.731Z,24.23
2019-01-19T14:35:54.243Z,20.67
2019-01-19T14:38:43.288Z,21.73
2019-01-19T14:41:29.482Z,23.83
2019-01-19T14:44:32.155Z,21.87
2019-01-19T14:47:03.299Z,21.80
2019-01-19T14:49:51.056Z,20.43
2019-01-19T14:52:38.880Z,20.73
2019-01-19T14:55:29.497Z,21.57
2019-01-19T14:58:17.302Z,24.90
2019-01-19T15:00:49.331Z,22.47
2019-01-19T15:03:35.714Z,22.20
2019-01-19T15:06:08.889Z,21.83
2019-01-19T15:09:03.812Z,21.30
2019-01-19T15:11:36.139Z,24.20
2019-01-19T15:14:23.983Z,22.03
2019-01-19T15:17:16.251Z,23.63
2019-01-19T15:20:15.933Z,26.00
2019-01-19T15:23:06.449Z,23.70
2019-01-19T15:26:00.112Z,24.63
2019-01-19T15:28:34.259Z,23.23
2019-01-19T15:31:20.656Z,24.70
2019-01-19T15:34:14.259Z,22.73
2019-01-19T15:37:13.845Z,24.63
2019-01-19T15:40:02.308Z,22.87
2019-01-19T15:42:46.434Z,24.10
2019-01-19T15:45:40.306Z,25.63
2019-01-19T15:48:36.809Z,26.30
2019-01-19T15:51:25.319Z,22.97
2019-01-19T15:53:56.817Z,23.20
2019-01-19T15:56:59.412Z,26.07
2019-01-19T15:59:59.155Z,26.67
2019-01-19T16:02:33.523Z,24.63
2019-01-19T16:05:23.971Z,25.13
2019-01-19T16:08:09.806Z,22.70
2019-01-19T16:10:43.122Z,25.97
2019-01-19T16:13:23.422Z,29.60
2019-01-19T16:15:58.086Z,21.93
2019-01-19T16:18:42.810Z,22.47
2019-01-19T16:21:13.918Z,24.10
2019-01-19T16:24:01.803Z,23.87
2019-01-19T16:26:45.247Z,23.27
2019-01-19T16:29:35.716Z,20.50
2019-01-19T16:32:29.211Z,22.93
2019-01-19T16:35:19.860Z,21.13
2019-01-19T16:37:55.239Z,23.20
2019-01-19T16:40:36.747Z,22.03
2019-01-19T16:43:14.446Z,22.23
2019-01-19T16:46:08.102Z,22.43
2019-01-19T16:48:42.926Z,22.17
2019-01-19T16:51:42.810Z,22.77
2019-01-19T16:54:17.037Z,23.20
2019-01-19T16:56:59.106Z,24.47
2019-01-19T16:59:51.139Z,22.03
2019-01-19T17:02:33.322Z,26.00
2019-01-19T17:05:19.542Z,27.17
2019-01-19T17:08:05.453Z,24.20
2019-01-19T17:10:55.501Z,23.63
2019-01-19T17:13:43.255Z,25.70
2019-01-19T17:16:29.691Z,24.30
2019-01-19T17:19:14.056Z,27.00
2019-01-19T17:22:02.805Z,28.90
2019-01-19T17:24:50.767Z,24.87
2019-01-19T17:27:32.142Z,26.57
2019-01-19T17:30:09.771Z,28.27
2019-01-19T17:32:57.544Z,25.63
2019-01-19T17:35:54.475Z,25.73
2019-01-19T17:38:44.950Z,26.27
2019-01-19T17:41:32.709Z,27.03
2019-01-19T17:44:20.527Z,22.43
2019-01-19T17:47:10.862Z,26.63
2019-01-19T17:49:57.107Z,29.90
2019-01-19T17:52:34.669Z,27.03
2019-01-19T17:55:25.019Z,28.23
2019-01-19T17:58:24.779Z,29.97
2019-01-19T18:01:09.934Z,28.37
2019-01-19T18:03:48.676Z,28.03
2019-01-19T18:06:34.636Z,30.10
2019-01-19T18:09:28.133Z,37.07
2019-01-19T18:12:15.922Z,32.23
2019-01-19T18:15:12.630Z,31.37
2019-01-19T18:17:58.742Z,26.83
2019-01-19T18:20:34.750Z,28.80
2019-01-19T18:23:15.088Z,28.17
2019-01-19T18:26:05.546Z,32.53
2019-01-19T18:29:11.462Z,27.00
2019-01-19T18:31:59.159Z,22.97
2019-01-19T18:35:02.053Z,22.03
2019-01-19T18:37:52.325Z,24.83
2019-01-19T18:40:38.615Z,23.80
2019-01-19T18:43:35.069Z,23.40
2019-01-19T18:46:28.707Z,25.30
2019-01-19T18:49:04.138Z,25.07
2019-01-19T18:51:50.595Z,22.37
2019-01-19T18:54:36.636Z,22.87
2019-01-19T18:57:27.095Z,26.60
2019-01-19T19:00:05.917Z,23.13
2019-01-19T19:02:41.214Z,26.03
2019-01-19T19:05:20.007Z,24.67
2019-01-19T19:07:54.121Z,21.90
2019-01-19T19:10:59.682Z,22.63
2019-01-19T19:13:35.057Z,22.80
2019-01-19T19:16:26.534Z,21.10
2019-01-19T19:19:12.682Z,22.07
2019-01-19T19:22:03.434Z,24.53
2019-01-19T19:24:51.195Z,21.93
2019-01-19T19:27:27.677Z,25.37
2019-01-19T19:30:09.692Z,26.97
2019-01-19T19:32:55.909Z,24.27
2019-01-19T19:35:35.058Z,23.83
2019-01-19T19:38:31.819Z,22.00
2019-01-19T19:41:09.137Z,20.70
2019-01-19T19:44:00.065Z,21.37
2019-01-19T19:46:53.458Z,22.60
2019-01-19T19:49:33.498Z,21.63
2019-01-19T19:52:05.600Z,24.07
2019-01-19T19:54:34.606Z,24.83
2019-01-19T19:57:03.189Z,23.63
2019-01-19T19:59:31.798Z,24.57
2019-01-19T20:02:00.286Z,22.97
2019-01-19T20:04:28.938Z,24.00
2019-01-19T20:06:57.528Z,23.07
2019-01-19T20:09:26.165Z,22.13
2019-01-19T20:11:59.206Z,21.17
2019-01-19T20:14:27.826Z,21.17
2019-01-19T20:16:56.378Z,19.83
2019-01-19T20:19:24.934Z,22.37
2019-01-19T20:21:53.530Z,20.30
2019-01-19T20:24:22.091Z,23.80
2019-01-19T20:26:50.657Z,22.77
2019-01-19T20:29:19.241Z,25.83
2019-01-19T20:31:47.886Z,22.23
2019-01-19T20:34:16.464Z,19.00
2019-01-19T20:36:45.107Z,19.30
2019-01-19T20:39:13.681Z,20.97
2019-01-19T20:41:42.243Z,23.60
2019-01-19T20:44:10.852Z,19.47
2019-01-19T20:46:39.455Z,21.33
2019-01-19T20:49:08.060Z,24.00
2019-01-19T20:51:36.636Z,20.90
2019-01-19T20:54:05.202Z,22.97
2019-01-19T20:56:33.787Z,19.87
2019-01-19T20:59:02.343Z,20.50
2019-01-19T21:01:30.912Z,19.43
2019-01-19T21:03:59.470Z,23.90
2019-01-19T21:06:28.048Z,19.70
2019-01-19T21:08:56.594Z,19.67
2019-01-19T21:11:25.167Z,19.13
2019-01-19T21:13:53.771Z,18.27
2019-01-19T21:16:22.357Z,20.17
2019-01-19T21:18:50.997Z,17.97
2019-01-19T21:21:19.576Z,18.97
2019-01-19T21:23:48.143Z,20.03
2019-01-19T21:26:16.735Z,18.93
2019-01-19T21:28:45.400Z,19.13
2019-01-19T21:31:13.954Z,18.53
2019-01-19T21:33:42.515Z,20.40
2019-01-19T21:36:11.099Z,20.73
2019-01-19T21:38:39.658Z,19.00
2019-01-19T21:41:08.259Z,18.93
2019-01-19T21:43:36.906Z,22.03
2019-01-19T21:46:05.463Z,17.67
2019-01-19T21:48:34.058Z,17.93
2019-01-19T21:51:02.606Z,21.40
2019-01-19T21:53:31.178Z,20.00
2019-01-19T21:55:59.762Z,20.03
2019-01-19T21:58:28.306Z,17.57
2019-01-19T22:00:56.879Z,21.17
2019-01-19T22:03:25.475Z,17.97
2019-01-19T22:05:54.350Z,17.80
2019-01-19T22:08:22.938Z,19.67
2019-01-19T22:10:51.530Z,17.40
2019-01-19T22:13:20.096Z,18.07
2019-01-19T22:15:48.704Z,16.83
2019-01-19T22:18:17.347Z,17.47
2019-01-19T22:20:45.898Z,17.77
2019-01-19T22:23:14.458Z,17.13
2019-01-19T22:25:43.078Z,18.83
2019-01-19T22:28:11.649Z,18.73
2019-01-19T22:30:41.749Z,17.70
2019-01-19T22:33:10.530Z,21.47
2019-01-19T22:35:39.215Z,17.87
2019-01-19T22:38:07.782Z,19.37
2019-01-19T22:40:36.351Z,17.37
2019-01-19T22:43:06.372Z,19.03
2019-01-19T22:45:34.931Z,17.47
2019-01-19T22:48:03.510Z,18.57
2019-01-19T22:50:32.070Z,19.50
2019-01-19T22:53:00.619Z,16.73
2019-01-19T22:55:29.195Z,19.77
2019-01-19T22:57:57.738Z,19.70
2019-01-19T23:00:36.520Z,17.57
2019-01-19T23:03:05.092Z,18.33
2019-01-19T23:05:33.646Z,17.60
2019-01-19T23:08:02.211Z,18.70
2019-01-19T23:10:30.780Z,17.07
2019-01-19T23:12:59.344Z,20.23
2019-01-19T23:15:27.926Z,20.93
2019-01-19T23:17:56.483Z,18.87
2019-01-19T23:20:25.049Z,19.23
2019-01-19T23:22:53.621Z,18.17
2019-01-19T23:25:22.232Z,18.50
2019-01-19T23:27:50.801Z,17.63
2019-01-19T23:30:19.407Z,18.87
2019-01-19T23:32:47.975Z,20.03
2019-01-19T23:35:16.545Z,19.90
2019-01-19T23:37:45.130Z,17.30
2019-01-19T23:40:13.682Z,17.97
2019-01-19T23:42:47.169Z,17.63
2019-01-19T23:45:12.542Z,18.47
2019-01-19T23:47:41.111Z,19.40
2019-01-19T23:50:09.673Z,20.90
2019-01-19T23:52:38.229Z,18.40
2019-01-19T23:55:06.814Z,17.90
2019-01-19T23:57:35.370Z,18.10
